createdAt,value
2019-02-19T00:00:28.947Z,4.00
2019-02-19T00:05:24.853Z,4.10
2019-02-19T00:10:20.748Z,4.24
2019-02-19T00:15:17.370Z,4.20
2019-02-19T00:20:13.362Z,4.38
2019-02-19T00:25:09.270Z,4.44
2019-02-19T00:30:05.954Z,4.37
2019-02-19T00:35:01.956Z,4.32
2019-02-19T00:39:57.839Z,4.23
2019-02-19T00:45:00.354Z,4.42
2019-02-19T00:49:56.268Z,4.45
2019-02-19T00:54:52.174Z,4.47
2019-02-19T00:59:48.100Z,4.50
2019-02-19T01:04:43.976Z,4.48
2019-02-19T01:09:39.902Z,4.43
2019-02-19T01:14:35.808Z,4.39
2019-02-19T01:19:35.496Z,4.48
2019-02-19T01:24:31.403Z,4.46
2019-02-19T01:29:27.291Z,4.48
2019-02-19T01:34:23.176Z,4.57
2019-02-19T01:39:19.185Z,4.66
2019-02-19T01:44:15.068Z,4.66
2019-02-19T01:49:10.965Z,4.64
2019-02-19T01:54:06.882Z,4.76
2019-02-19T01:59:02.781Z,4.45
2019-02-19T02:03:58.683Z,4.34
2019-02-19T02:08:54.589Z,4.41
2019-02-19T02:13:50.529Z,4.42
2019-02-19T02:18:46.482Z,4.34
2019-02-19T02:23:42.390Z,4.35
2019-02-19T02:28:38.401Z,4.27
2019-02-19T02:33:34.315Z,4.29
2019-02-19T02:38:30.204Z,4.32
2019-02-19T02:43:26.096Z,4.22
2019-02-19T02:48:21.979Z,4.24
2019-02-19T02:53:17.865Z,4.21
2019-02-19T02:58:13.761Z,4.32
2019-02-19T03:03:09.620Z,4.26
2019-02-19T03:08:05.874Z,4.39
2019-02-19T03:13:01.761Z,4.51
2019-02-19T03:17:57.666Z,4.49
2019-02-19T03:22:53.582Z,4.87
2019-02-19T03:27:49.469Z,5.26
2019-02-19T03:32:45.386Z,5.52
2019-02-19T03:37:41.260Z,5.78
2019-02-19T03:42:37.254Z,6.05
2019-02-19T03:47:33.150Z,7.28
2019-02-19T03:52:29.039Z,7.64
2019-02-19T03:57:24.926Z,7.89
2019-02-19T04:02:20.813Z,8.03
2019-02-19T04:07:16.791Z,8.13
2019-02-19T04:12:12.680Z,8.16
2019-02-19T04:17:08.564Z,8.20
2019-02-19T04:22:04.525Z,8.22
2019-02-19T04:27:00.431Z,8.17
2019-02-19T04:31:56.312Z,8.19
2019-02-19T04:36:52.210Z,8.21
2019-02-19T04:41:48.096Z,8.15
2019-02-19T04:46:44.001Z,8.13
2019-02-19T04:51:39.886Z,8.08
2019-02-19T04:56:35.877Z,8.01
2019-02-19T05:01:31.777Z,7.92
2019-02-19T05:06:27.677Z,7.86
2019-02-19T05:11:23.569Z,7.77
2019-02-19T05:16:19.454Z,7.79
2019-02-19T05:21:15.465Z,7.60
2019-02-19T05:26:11.446Z,7.46
2019-02-19T05:31:07.430Z,7.41
2019-02-19T05:36:03.341Z,7.35
2019-02-19T05:40:59.226Z,7.41
2019-02-19T05:45:55.849Z,7.43
2019-02-19T05:50:51.698Z,7.34
2019-02-19T05:55:47.669Z,7.46
2019-02-19T06:00:43.561Z,7.37
2019-02-19T06:05:39.443Z,7.47
2019-02-19T06:10:35.327Z,7.37
2019-02-19T06:15:31.946Z,7.38
2019-02-19T06:20:27.820Z,7.35
2019-02-19T06:25:23.702Z,7.37
2019-02-19T06:30:19.625Z,7.43
2019-02-19T06:35:15.531Z,7.35
2019-02-19T06:40:23.160Z,7.39
2019-02-19T06:45:19.948Z,7.44
2019-02-19T06:50:15.806Z,7.46
2019-02-19T06:55:11.686Z,7.51
2019-02-19T07:00:10.387Z,7.49
2019-02-19T07:05:08.070Z,7.48
2019-02-19T07:10:05.159Z,7.53
2019-02-19T07:15:04.992Z,7.50
2019-02-19T07:20:00.945Z,7.58
2019-02-19T07:24:56.915Z,7.63
2019-02-19T07:29:52.794Z,7.60
2019-02-19T07:34:48.678Z,7.58
2019-02-19T07:39:44.561Z,7.57
2019-02-19T07:44:41.940Z,7.63
2019-02-19T07:49:38.038Z,7.63
2019-02-19T07:54:33.930Z,7.67
2019-02-19T07:59:29.813Z,7.69
2019-02-19T08:04:25.688Z,7.75
2019-02-19T08:09:21.578Z,7.83
2019-02-19T08:14:17.463Z,7.90
2019-02-19T08:19:13.350Z,7.81
2019-02-19T08:24:09.256Z,7.81
2019-02-19T08:29:13.545Z,7.81
2019-02-19T08:34:02.996Z,7.80
2019-02-19T08:38:58.879Z,7.78
2019-02-19T08:43:54.754Z,7.76
2019-02-19T08:48:55.936Z,7.80
2019-02-19T08:53:56.577Z,7.82
2019-02-19T08:58:53.871Z,7.88
2019-02-19T09:03:55.001Z,7.86
2019-02-19T09:08:51.832Z,7.81
2019-02-19T09:13:48.965Z,7.79
2019-02-19T09:18:46.290Z,7.84
2019-02-19T09:23:44.681Z,7.91
2019-02-19T09:28:43.571Z,7.99
2019-02-19T09:33:40.374Z,8.13
2019-02-19T09:38:37.605Z,8.16
2019-02-19T09:43:35.748Z,8.33
2019-02-19T09:48:31.596Z,8.43
2019-02-19T09:53:27.620Z,8.41
2019-02-19T09:58:23.752Z,8.39
2019-02-19T10:03:19.632Z,8.35
2019-02-19T10:08:15.520Z,8.30
2019-02-19T10:13:11.401Z,8.59
2019-02-19T10:18:10.317Z,8.61
2019-02-19T10:23:05.362Z,8.48
2019-02-19T10:28:01.405Z,8.37
2019-02-19T10:32:57.295Z,8.56
2019-02-19T10:37:55.484Z,8.71
2019-02-19T10:42:51.491Z,8.73
2019-02-19T10:47:48.054Z,8.96
2019-02-19T10:52:44.255Z,9.05
2019-02-19T10:57:40.113Z,9.09
2019-02-19T11:02:36.001Z,8.96
2019-02-19T11:07:33.128Z,8.95
2019-02-19T11:12:30.365Z,8.90
2019-02-19T11:17:29.003Z,9.09
2019-02-19T11:22:26.009Z,8.98
2019-02-19T11:27:21.991Z,9.09
2019-02-19T11:32:17.880Z,9.22
2019-02-19T11:37:13.765Z,9.16
2019-02-19T11:42:09.649Z,9.30
2019-02-19T11:47:05.531Z,9.59
2019-02-19T11:52:01.419Z,9.67
2019-02-19T11:56:57.302Z,9.73
2019-02-19T12:01:53.284Z,9.90
2019-02-19T12:06:49.163Z,10.06
2019-02-19T12:11:45.047Z,10.36
2019-02-19T12:16:40.927Z,10.43
2019-02-19T12:21:36.850Z,10.43
2019-02-19T12:26:32.828Z,10.54
2019-02-19T12:31:28.711Z,10.24
2019-02-19T12:36:25.124Z,10.17
2019-02-19T12:41:23.104Z,10.32
2019-02-19T12:46:19.272Z,10.17
2019-02-19T12:51:15.311Z,9.94
2019-02-19T12:56:11.199Z,9.77
2019-02-19T13:01:07.191Z,9.80
2019-02-19T13:06:03.075Z,10.04
2019-02-19T13:10:59.061Z,9.87
2019-02-19T13:15:55.920Z,9.95
2019-02-19T13:20:51.800Z,10.09
2019-02-19T13:25:47.693Z,10.10
2019-02-19T13:30:43.595Z,10.15
2019-02-19T13:35:39.484Z,10.00
2019-02-19T13:40:35.383Z,9.90
2019-02-19T13:45:31.946Z,9.91
2019-02-19T13:50:29.791Z,9.83
2019-02-19T13:55:27.584Z,9.73
2019-02-19T14:00:25.395Z,9.83
2019-02-19T14:05:21.284Z,9.74
2019-02-19T14:10:17.175Z,9.86
2019-02-19T14:15:20.087Z,9.98
2019-02-19T14:20:20.872Z,9.89
2019-02-19T14:25:30.775Z,9.86
2019-02-19T14:30:47.517Z,9.89
2019-02-19T14:35:54.818Z,9.87
2019-02-19T14:46:18.714Z,9.82
2019-02-19T14:51:23.567Z,9.77
2019-02-19T14:56:31.457Z,9.78
2019-02-19T15:01:33.283Z,9.80
2019-02-19T15:06:49.574Z,9.79
2019-02-19T15:12:04.946Z,9.81
2019-02-19T15:17:19.971Z,9.74
2019-02-19T15:22:30.955Z,9.72
2019-02-19T15:27:47.744Z,9.73
2019-02-19T15:32:58.437Z,9.73
2019-02-19T15:37:56.770Z,9.68
2019-02-19T15:42:58.348Z,9.69
2019-02-19T15:47:59.506Z,9.69
2019-02-19T15:52:57.400Z,9.67
2019-02-19T15:58:04.568Z,9.63
2019-02-19T16:03:03.712Z,9.62
2019-02-19T16:13:33.421Z,9.58
2019-02-19T16:18:31.459Z,9.57
2019-02-19T16:23:46.229Z,9.56
2019-02-19T16:28:44.125Z,9.58
2019-02-19T16:33:50.863Z,9.52
2019-02-19T16:39:00.932Z,9.58
2019-02-19T16:49:17.780Z,9.46
2019-02-19T16:54:16.224Z,9.47
2019-02-19T16:59:14.121Z,9.44
2019-02-19T17:04:12.979Z,9.46
2019-02-19T17:09:20.143Z,9.40
2019-02-19T17:14:33.338Z,9.43
2019-02-19T17:19:45.358Z,9.34
2019-02-19T17:24:48.987Z,9.34
2019-02-19T17:29:46.879Z,9.36
2019-02-19T17:35:01.324Z,9.31
2019-02-19T17:40:02.162Z,9.29
2019-02-19T17:45:12.458Z,9.22
2019-02-19T17:55:17.150Z,9.19
2019-02-19T18:00:14.948Z,9.15
2019-02-19T18:05:15.614Z,9.14
2019-02-19T18:10:13.603Z,9.10
2019-02-19T18:15:18.284Z,9.12
2019-02-19T18:20:14.265Z,9.11
2019-02-19T18:25:10.153Z,9.10
2019-02-19T18:30:08.206Z,9.10
2019-02-19T18:35:09.624Z,9.07
2019-02-19T18:40:23.005Z,9.03
2019-02-19T18:45:24.302Z,8.95
2019-02-19T18:50:26.215Z,8.86
2019-02-19T18:55:23.170Z,8.88
2019-02-19T19:00:19.068Z,8.89
2019-02-19T19:05:15.045Z,8.90
2019-02-19T19:10:11.228Z,8.90
2019-02-19T19:15:08.693Z,8.90
2019-02-19T19:20:07.961Z,8.87
2019-02-19T19:25:04.961Z,8.81
2019-02-19T19:30:01.764Z,8.64
2019-02-19T19:34:57.779Z,8.60
2019-02-19T19:39:53.717Z,8.52
2019-02-19T19:44:49.667Z,8.40
2019-02-19T19:49:45.582Z,8.25
2019-02-19T19:54:41.486Z,8.22
2019-02-19T19:59:37.468Z,8.08
2019-02-19T20:04:33.352Z,7.96
2019-02-19T20:09:29.338Z,7.86
2019-02-19T20:14:25.261Z,7.71
2019-02-19T20:19:21.145Z,7.59
2019-02-19T20:24:17.165Z,7.52
2019-02-19T20:29:13.068Z,7.45
2019-02-19T20:34:08.998Z,7.32
2019-02-19T20:39:04.942Z,7.26
2019-02-19T20:44:00.826Z,7.12
2019-02-19T20:48:56.809Z,7.06
2019-02-19T20:53:52.696Z,7.02
2019-02-19T20:58:48.680Z,6.82
2019-02-19T21:03:44.565Z,6.87
2019-02-19T21:08:40.548Z,6.82
2019-02-19T21:13:36.435Z,6.56
2019-02-19T21:18:32.435Z,6.62
2019-02-19T21:23:28.332Z,6.44
2019-02-19T21:28:25.110Z,6.45
2019-02-19T21:33:21.013Z,6.44
2019-02-19T21:38:16.981Z,6.30
2019-02-19T21:43:12.872Z,6.25
2019-02-19T21:48:08.853Z,6.18
2019-02-19T21:53:04.731Z,6.15
2019-02-19T21:58:00.615Z,6.20
2019-02-19T22:02:56.513Z,6.15
2019-02-19T22:07:52.400Z,6.10
2019-02-19T22:12:48.285Z,6.04
2019-02-19T22:17:44.253Z,5.92
2019-02-19T22:22:40.167Z,5.84
2019-02-19T22:27:36.047Z,5.95
2019-02-19T22:32:31.956Z,5.80
2019-02-19T22:37:27.841Z,5.51
2019-02-19T22:42:23.723Z,5.01
2019-02-19T22:47:19.613Z,5.23
2019-02-19T22:52:15.501Z,5.25
2019-02-19T22:57:11.386Z,4.92
2019-02-19T23:02:09.276Z,4.87
2019-02-19T23:07:05.160Z,4.81
2019-02-19T23:12:01.294Z,4.57
2019-02-19T23:16:57.153Z,4.01
2019-02-19T23:21:53.646Z,3.77
2019-02-19T23:26:49.527Z,3.48
2019-02-19T23:31:45.418Z,3.16
2019-02-19T23:36:46.012Z,3.02
2019-02-19T23:41:41.908Z,2.80
2019-02-19T23:46:37.809Z,2.80
2019-02-19T23:51:33.692Z,2.86
2019-02-19T23:56:29.577Z,2.71
